Terminal Aerodrome Forecast
Issued by NWS Charleston, SC

Home | Current Version | Previous Version | Text Only | Print | Product List | Glossary On
Versions: 1 2 3 4 5 6 7 8 9 10 11 12 13
000
FTUS42 KCHS 250523
TAFSAV
TAF
KSAV 250523Z 2506/2606 07005KT P6SM SCT025 BKN050
     FM251400 11010KT P6SM BKN035
     FM251800 13012G17KT P6SM BKN050
     FM260000 12007KT P6SM SCT030 SCT250=

USA.gov is the U.S. government's official web portal to all federal, state and local government web resources and services.